createdAt,value
2023-01-19T00:00:54.615Z,20.45
2023-01-19T00:03:22.991Z,21.65
2023-01-19T00:05:50.231Z,22.98
2023-01-19T00:08:17.708Z,22.05
2023-01-19T00:10:47.863Z,21.20
2023-01-19T00:13:15.618Z,21.30
2023-01-19T00:15:43.068Z,21.10
2023-01-19T00:18:11.136Z,21.10
2023-01-19T00:20:40.352Z,20.55
2023-01-19T00:23:07.764Z,21.15
2023-01-19T00:25:35.337Z,20.17
2023-01-19T00:28:02.330Z,20.30
2023-01-19T00:30:29.493Z,20.65
2023-01-19T00:32:56.821Z,20.67
2023-01-19T00:35:23.882Z,20.85
2023-01-19T00:37:52.231Z,20.48
2023-01-19T00:40:19.387Z,21.52
2023-01-19T00:42:46.340Z,20.73
2023-01-19T00:45:15.214Z,20.23
2023-01-19T00:47:42.529Z,19.48
2023-01-19T00:50:11.306Z,20.92
2023-01-19T00:52:38.583Z,20.55
2023-01-19T00:55:09.405Z,19.27
2023-01-19T00:57:36.561Z,19.35
2023-01-19T01:00:04.364Z,19.55
2023-01-19T01:02:31.448Z,20.38
2023-01-19T01:04:58.464Z,21.35
2023-01-19T01:07:25.390Z,19.52
2023-01-19T01:09:52.337Z,20.35
2023-01-19T01:12:20.928Z,19.40
2023-01-19T01:14:47.981Z,19.52
2023-01-19T01:17:15.552Z,19.80
2023-01-19T01:19:42.493Z,19.90
2023-01-19T01:22:10.187Z,19.13
2023-01-19T01:24:37.150Z,19.52
2023-01-19T01:27:04.268Z,19.02
2023-01-19T01:29:32.582Z,20.38
2023-01-19T01:31:59.572Z,19.88
2023-01-19T01:34:26.561Z,18.63
2023-01-19T01:36:53.532Z,19.50
2023-01-19T01:39:20.599Z,19.50
2023-01-19T01:41:47.541Z,19.35
2023-01-19T01:44:48.920Z,18.98
2023-01-19T01:47:21.205Z,18.85
2023-01-19T01:49:48.572Z,18.08
2023-01-19T01:52:16.432Z,18.67
2023-01-19T01:54:43.934Z,18.73
2023-01-19T01:57:12.212Z,17.38
2023-01-19T01:59:45.121Z,18.88
2023-01-19T02:02:17.471Z,18.83
2023-01-19T02:04:49.042Z,18.58
2023-01-19T02:07:21.420Z,19.55
2023-01-19T02:09:48.747Z,18.45
2023-01-19T02:12:16.278Z,19.02
2023-01-19T02:14:43.287Z,18.52
2023-01-19T02:17:10.211Z,19.40
2023-01-19T02:19:42.387Z,20.02
2023-01-19T02:22:14.809Z,18.10
2023-01-19T02:24:43.489Z,18.30
2023-01-19T02:27:12.058Z,19.17
2023-01-19T02:29:40.119Z,19.38
2023-01-19T02:32:07.263Z,18.02
2023-01-19T02:34:35.011Z,19.67
2023-01-19T02:37:06.021Z,18.52
2023-01-19T02:39:36.518Z,19.02
2023-01-19T02:42:09.732Z,20.20
2023-01-19T02:44:38.285Z,18.48
2023-01-19T02:47:05.635Z,19.05
2023-01-19T02:49:32.604Z,19.15
2023-01-19T02:52:00.052Z,17.88
2023-01-19T02:54:36.924Z,19.17
2023-01-19T02:57:23.943Z,18.08
2023-01-19T03:00:05.691Z,19.08
2023-01-19T03:02:39.307Z,17.77
2023-01-19T03:05:19.647Z,17.55
2023-01-19T03:07:54.475Z,16.88
2023-01-19T03:10:30.712Z,17.42
2023-01-19T03:13:04.116Z,17.73
2023-01-19T03:15:35.169Z,17.73
2023-01-19T03:18:03.098Z,17.60
2023-01-19T03:20:30.084Z,18.42
2023-01-19T03:23:02.293Z,17.73
2023-01-19T03:25:33.370Z,18.52
2023-01-19T03:28:03.420Z,18.20
2023-01-19T03:30:35.040Z,16.67
2023-01-19T03:33:06.092Z,16.67
2023-01-19T03:35:36.711Z,16.65
2023-01-19T03:38:08.985Z,18.48
2023-01-19T03:40:37.065Z,17.20
2023-01-19T03:43:06.337Z,17.70
2023-01-19T03:45:36.826Z,17.42
2023-01-19T03:48:05.082Z,19.40
2023-01-19T03:50:32.252Z,18.08
2023-01-19T03:53:06.567Z,19.17
2023-01-19T03:55:33.789Z,18.00
2023-01-19T03:58:00.762Z,19.42
2023-01-19T04:00:29.385Z,19.30
2023-01-19T04:02:56.484Z,20.20
2023-01-19T04:05:24.172Z,19.95
2023-01-19T04:07:52.124Z,20.40
2023-01-19T04:10:19.865Z,20.27
2023-01-19T04:12:47.103Z,20.52
2023-01-19T04:15:14.062Z,19.75
2023-01-19T04:17:42.405Z,22.30
2023-01-19T04:20:10.270Z,21.85
2023-01-19T04:22:37.227Z,22.73
2023-01-19T04:25:04.526Z,22.25
2023-01-19T04:27:31.462Z,22.85
2023-01-19T04:29:58.390Z,22.63
2023-01-19T04:32:25.333Z,24.45
2023-01-19T04:34:53.666Z,23.77
2023-01-19T04:37:20.689Z,22.60
2023-01-19T04:39:47.798Z,23.52
2023-01-19T04:42:14.792Z,24.48
2023-01-19T04:44:41.730Z,19.73
2023-01-19T04:47:08.678Z,23.73
2023-01-19T04:49:35.623Z,23.73
2023-01-19T04:52:04.110Z,24.30
2023-01-19T04:54:31.277Z,24.25
2023-01-19T04:56:58.298Z,24.25
2023-01-19T04:59:25.271Z,23.85
2023-01-19T05:01:52.243Z,24.45
2023-01-19T05:04:19.148Z,24.20
2023-01-19T05:06:46.116Z,24.75
2023-01-19T05:09:14.536Z,24.17
2023-01-19T05:11:41.527Z,24.92
2023-01-19T05:14:08.451Z,23.55
2023-01-19T05:16:35.664Z,21.38
2023-01-19T05:19:02.613Z,22.02
2023-01-19T05:21:29.569Z,22.38
2023-01-19T05:23:56.466Z,20.83
2023-01-19T05:26:24.749Z,23.10
2023-01-19T05:28:51.674Z,22.60
2023-01-19T05:31:19.612Z,21.80
2023-01-19T05:33:46.785Z,23.65
2023-01-19T05:36:13.728Z,22.17
2023-01-19T05:38:40.777Z,22.75
2023-01-19T05:41:07.732Z,22.77
2023-01-19T05:43:36.152Z,22.27
2023-01-19T05:46:04.191Z,23.00
2023-01-19T05:48:31.242Z,22.88
2023-01-19T05:50:58.822Z,21.33
2023-01-19T05:53:26.326Z,23.95
2023-01-19T05:55:53.558Z,22.92
2023-01-19T05:58:20.505Z,22.33
2023-01-19T06:00:49.276Z,21.55
2023-01-19T06:03:16.314Z,20.75
2023-01-19T06:05:43.264Z,20.45
2023-01-19T06:08:10.223Z,21.13
2023-01-19T06:10:37.170Z,21.38
2023-01-19T06:13:04.171Z,22.50
2023-01-19T06:15:31.157Z,25.40
2023-01-19T06:17:59.465Z,31.73
2023-01-19T06:20:26.410Z,28.13
2023-01-19T06:22:56.305Z,25.10
2023-01-19T06:25:23.434Z,27.02
2023-01-19T06:27:50.467Z,24.95
2023-01-19T06:30:18.232Z,26.23
2023-01-19T06:32:45.302Z,25.05
2023-01-19T06:35:13.945Z,20.65
2023-01-19T06:37:41.808Z,22.02
2023-01-19T06:40:09.963Z,25.05
2023-01-19T06:42:36.944Z,23.90
2023-01-19T06:45:04.209Z,23.67
2023-01-19T06:47:31.181Z,23.65
2023-01-19T06:49:58.051Z,25.17
2023-01-19T06:52:26.418Z,24.85
2023-01-19T06:54:53.477Z,22.20
2023-01-19T06:57:22.396Z,27.67
2023-01-19T06:59:49.390Z,26.52
2023-01-19T07:02:27.570Z,24.30
2023-01-19T07:04:55.371Z,24.60
2023-01-19T07:07:22.350Z,22.55
2023-01-19T07:09:53.739Z,28.52
2023-01-19T07:12:21.435Z,23.73
2023-01-19T07:14:48.837Z,25.98
2023-01-19T07:17:16.071Z,25.77
2023-01-19T07:19:43.139Z,24.73
2023-01-19T07:22:10.400Z,25.70
2023-01-19T07:24:37.371Z,25.83
2023-01-19T07:27:05.751Z,27.15
2023-01-19T07:29:32.774Z,26.63
2023-01-19T07:31:59.902Z,26.70
2023-01-19T07:34:26.851Z,28.33
2023-01-19T07:36:55.281Z,25.10
2023-01-19T07:39:22.185Z,25.10
2023-01-19T07:41:49.422Z,22.77
2023-01-19T07:44:17.928Z,23.90
2023-01-19T07:46:44.916Z,22.38
2023-01-19T07:49:11.932Z,21.05
2023-01-19T07:51:38.883Z,16.33
2023-01-19T07:54:08.783Z,22.48
2023-01-19T07:56:36.158Z,25.00
2023-01-19T07:59:03.379Z,22.42
2023-01-19T08:01:32.032Z,23.00
2023-01-19T08:03:59.063Z,28.13
2023-01-19T08:06:32.557Z,22.55
2023-01-19T08:08:59.516Z,26.95
2023-01-19T08:11:26.455Z,22.33
2023-01-19T08:13:53.414Z,23.23
2023-01-19T08:16:21.468Z,24.15
2023-01-19T08:18:49.987Z,25.05
2023-01-19T08:21:17.024Z,22.15
2023-01-19T08:23:44.007Z,24.00
2023-01-19T08:26:21.179Z,22.35
2023-01-19T08:28:48.133Z,22.60
2023-01-19T08:31:21.063Z,24.25
2023-01-19T08:33:51.039Z,25.02
2023-01-19T08:36:18.141Z,23.02
2023-01-19T08:38:45.783Z,27.58
2023-01-19T08:41:13.194Z,24.63
2023-01-19T08:43:40.145Z,22.75
2023-01-19T08:46:07.125Z,25.42
2023-01-19T08:48:34.193Z,21.10
2023-01-19T08:51:02.575Z,20.48
2023-01-19T08:53:29.465Z,25.55
2023-01-19T08:55:57.380Z,25.80
2023-01-19T08:58:24.535Z,24.30
2023-01-19T09:00:51.598Z,23.77
2023-01-19T09:03:19.666Z,23.75
2023-01-19T09:05:46.705Z,17.83
2023-01-19T09:08:15.720Z,25.85
2023-01-19T09:10:46.023Z,23.75
2023-01-19T09:13:13.618Z,20.55
2023-01-19T09:15:42.013Z,24.55
2023-01-19T09:18:11.170Z,24.85
2023-01-19T09:20:38.173Z,22.65
2023-01-19T09:23:05.215Z,25.70
2023-01-19T09:25:33.615Z,23.65
2023-01-19T09:28:01.012Z,23.63
2023-01-19T09:30:28.462Z,21.33
2023-01-19T09:32:55.466Z,22.83
2023-01-19T09:35:22.588Z,20.80
2023-01-19T09:37:49.507Z,22.88
2023-01-19T09:40:19.902Z,20.92
2023-01-19T09:42:52.087Z,23.45
2023-01-19T09:45:27.359Z,22.10
2023-01-19T09:47:55.604Z,24.25
2023-01-19T09:50:28.494Z,16.73
2023-01-19T09:52:58.745Z,21.33
2023-01-19T09:55:27.848Z,19.00
2023-01-19T09:57:56.201Z,19.30
2023-01-19T10:00:23.658Z,21.60
2023-01-19T10:02:57.723Z,17.70
2023-01-19T10:05:30.440Z,21.40
2023-01-19T10:08:17.121Z,17.85
2023-01-19T10:10:48.182Z,22.83
2023-01-19T10:13:34.301Z,23.27
2023-01-19T10:16:26.107Z,22.95
2023-01-19T10:18:56.824Z,19.75
2023-01-19T10:21:27.553Z,19.30
2023-01-19T10:23:58.732Z,20.85
2023-01-19T10:26:27.721Z,22.48
2023-01-19T10:29:05.175Z,20.10
2023-01-19T10:31:34.046Z,22.15
2023-01-19T10:34:01.142Z,21.50
2023-01-19T10:36:34.223Z,21.73
2023-01-19T10:39:03.213Z,21.33
2023-01-19T10:41:40.439Z,22.98
2023-01-19T10:44:09.748Z,19.15
2023-01-19T10:46:42.932Z,22.23
2023-01-19T10:49:24.855Z,18.63
2023-01-19T10:51:52.101Z,21.23
2023-01-19T10:54:20.578Z,20.80
2023-01-19T10:56:53.359Z,22.45
2023-01-19T10:59:36.770Z,23.27
2023-01-19T11:02:16.480Z,23.83
2023-01-19T11:04:44.205Z,22.17
2023-01-19T11:07:15.520Z,21.15
2023-01-19T11:09:42.745Z,20.80
2023-01-19T11:12:17.604Z,19.83
2023-01-19T11:14:46.988Z,20.50
2023-01-19T11:17:22.981Z,17.88
2023-01-19T11:19:59.341Z,17.17
2023-01-19T11:22:30.058Z,17.10
2023-01-19T11:25:02.170Z,18.75
2023-01-19T11:27:31.714Z,18.02
2023-01-19T11:30:06.094Z,18.08
2023-01-19T11:32:33.392Z,20.73
2023-01-19T11:35:00.417Z,14.98
2023-01-19T11:37:30.881Z,19.50
2023-01-19T11:39:59.096Z,18.00
2023-01-19T11:42:28.464Z,17.70
2023-01-19T11:45:04.727Z,17.90
2023-01-19T11:47:38.328Z,18.98
2023-01-19T11:50:12.423Z,19.05
2023-01-19T11:52:45.002Z,14.70
2023-01-19T11:55:21.403Z,17.30
2023-01-19T11:57:50.699Z,18.30
2023-01-19T12:00:25.940Z,18.17
2023-01-19T12:05:22.730Z,17.70
2023-01-19T12:07:51.571Z,18.20
2023-01-19T12:10:24.813Z,19.30
2023-01-19T12:12:52.585Z,18.02
2023-01-19T12:15:26.577Z,18.77
2023-01-19T12:17:57.428Z,13.50
2023-01-19T12:20:29.087Z,16.60
2023-01-19T12:23:07.080Z,17.58
2023-01-19T12:25:45.518Z,16.63
2023-01-19T12:28:15.339Z,16.65
2023-01-19T12:30:44.406Z,16.25
2023-01-19T12:33:22.394Z,17.90
2023-01-19T12:35:57.592Z,16.77
2023-01-19T12:38:46.345Z,16.55
2023-01-19T12:41:18.928Z,17.17
2023-01-19T12:43:46.435Z,16.05
2023-01-19T12:46:27.305Z,16.20
2023-01-19T12:48:54.812Z,15.32
2023-01-19T12:51:25.555Z,16.38
2023-01-19T12:53:55.206Z,17.33
2023-01-19T12:56:29.426Z,16.10
2023-01-19T12:58:56.516Z,13.32
2023-01-19T13:01:25.080Z,15.15
2023-01-19T13:04:01.220Z,15.45
2023-01-19T13:07:05.352Z,14.10
2023-01-19T13:09:33.205Z,15.63
2023-01-19T13:12:27.373Z,13.50
2023-01-19T13:15:28.132Z,15.13
2023-01-19T13:17:56.985Z,14.98
2023-01-19T13:20:27.341Z,12.52
2023-01-19T13:23:16.676Z,15.05
2023-01-19T13:25:50.818Z,14.88
2023-01-19T13:28:19.524Z,15.97
2023-01-19T13:30:55.663Z,13.55
2023-01-19T13:33:27.086Z,14.88
2023-01-19T13:35:57.007Z,16.13
2023-01-19T13:38:24.984Z,15.05
2023-01-19T13:40:54.700Z,16.40
2023-01-19T13:43:27.424Z,15.98
2023-01-19T13:45:55.217Z,14.52
2023-01-19T13:48:24.804Z,14.07
2023-01-19T13:51:05.013Z,15.50
2023-01-19T13:53:32.540Z,14.98
2023-01-19T13:56:15.706Z,13.90
2023-01-19T13:58:43.215Z,13.98
2023-01-19T14:01:21.717Z,15.30
2023-01-19T14:03:50.684Z,14.70
2023-01-19T14:06:23.382Z,15.38
2023-01-19T14:09:13.482Z,12.60
2023-01-19T14:11:40.516Z,14.25
2023-01-19T14:14:27.349Z,16.63
2023-01-19T14:16:54.575Z,14.98
2023-01-19T14:19:23.366Z,16.08
2023-01-19T14:22:00.082Z,16.80
2023-01-19T14:24:27.474Z,16.08
2023-01-19T14:27:06.643Z,14.82
2023-01-19T14:29:34.686Z,17.65
2023-01-19T14:32:14.058Z,17.77
2023-01-19T14:34:43.840Z,16.27
2023-01-19T14:37:19.868Z,18.17
2023-01-19T14:39:49.298Z,17.75
2023-01-19T14:42:23.435Z,16.08
2023-01-19T14:44:52.328Z,17.10
2023-01-19T14:47:27.658Z,16.95
2023-01-19T14:49:57.797Z,19.80
2023-01-19T14:52:28.437Z,20.25
2023-01-19T14:54:57.725Z,19.65
2023-01-19T14:57:24.700Z,19.90
2023-01-19T14:59:51.608Z,18.50
2023-01-19T15:02:18.819Z,17.73
2023-01-19T15:04:46.584Z,19.38
2023-01-19T15:07:17.727Z,22.98
2023-01-19T15:09:45.498Z,17.52
2023-01-19T15:12:16.591Z,17.10
2023-01-19T15:14:44.928Z,16.27
2023-01-19T15:17:17.519Z,16.83
2023-01-19T15:19:44.477Z,17.33
2023-01-19T15:22:12.379Z,17.60
2023-01-19T15:24:41.213Z,17.30
2023-01-19T15:27:11.014Z,18.92
2023-01-19T15:29:39.140Z,17.25
2023-01-19T15:32:09.829Z,17.10
2023-01-19T15:34:36.763Z,17.50
2023-01-19T15:37:03.714Z,15.18
2023-01-19T15:39:30.655Z,15.68
2023-01-19T15:42:00.673Z,15.90
2023-01-19T15:44:27.851Z,16.90
2023-01-19T15:46:54.923Z,17.17
2023-01-19T15:49:21.835Z,16.15
2023-01-19T15:51:48.934Z,17.60
2023-01-19T15:54:17.530Z,16.63
2023-01-19T15:56:44.540Z,14.77
2023-01-19T15:59:12.827Z,14.55
2023-01-19T16:01:40.306Z,15.63
2023-01-19T16:04:08.649Z,15.73
2023-01-19T16:06:35.670Z,15.85
2023-01-19T16:09:02.761Z,16.25
2023-01-19T16:11:31.395Z,14.93
2023-01-19T16:13:58.722Z,15.48
2023-01-19T16:16:27.238Z,16.02
2023-01-19T16:18:54.346Z,15.65
2023-01-19T16:21:21.544Z,16.10
2023-01-19T16:23:48.504Z,14.70
2023-01-19T16:26:27.432Z,15.55
2023-01-19T16:28:57.224Z,16.00
2023-01-19T16:31:26.236Z,16.60
2023-01-19T16:33:53.398Z,16.27
2023-01-19T16:36:26.754Z,17.20
2023-01-19T16:38:54.253Z,15.38
2023-01-19T16:41:21.416Z,16.25
2023-01-19T16:43:52.433Z,12.25
2023-01-19T16:46:21.918Z,13.52
2023-01-19T16:48:50.448Z,15.98
2023-01-19T16:51:17.723Z,14.25
2023-01-19T16:53:45.129Z,15.35
2023-01-19T16:56:14.031Z,16.20
2023-01-19T16:58:41.000Z,16.30
2023-01-19T17:01:10.464Z,18.15
2023-01-19T17:03:38.235Z,16.85
2023-01-19T17:06:08.498Z,14.73
2023-01-19T17:08:36.179Z,16.17
2023-01-19T17:11:09.574Z,17.17
2023-01-19T17:13:36.579Z,15.43
2023-01-19T17:16:04.959Z,16.08
2023-01-19T17:18:36.211Z,17.75
2023-01-19T17:21:04.931Z,16.65
2023-01-19T17:23:34.434Z,15.82
2023-01-19T17:26:01.990Z,16.30
2023-01-19T17:28:28.894Z,16.08
2023-01-19T17:30:56.125Z,16.25
2023-01-19T17:33:24.498Z,17.63
2023-01-19T17:35:51.523Z,18.08
2023-01-19T17:38:18.488Z,18.33
2023-01-19T17:40:46.858Z,18.17
2023-01-19T17:43:13.835Z,16.45
2023-01-19T17:45:40.801Z,19.92
2023-01-19T17:48:07.950Z,20.27
2023-01-19T17:50:34.960Z,18.77
2023-01-19T17:53:01.950Z,18.48
2023-01-19T17:55:28.897Z,18.48
2023-01-19T17:57:59.629Z,20.17
2023-01-19T18:00:27.405Z,20.35
2023-01-19T18:02:54.460Z,19.90
2023-01-19T18:05:23.114Z,20.08
2023-01-19T18:07:50.105Z,19.92
2023-01-19T18:10:17.516Z,21.42
2023-01-19T18:12:44.527Z,21.42
2023-01-19T18:15:14.832Z,20.17
2023-01-19T18:17:42.978Z,22.25
2023-01-19T18:20:11.973Z,22.95
2023-01-19T18:22:39.032Z,22.10
2023-01-19T18:25:06.562Z,24.13
2023-01-19T18:27:33.505Z,25.48
2023-01-19T18:30:00.531Z,25.70
2023-01-19T18:32:29.209Z,26.42
2023-01-19T18:34:56.141Z,25.88
2023-01-19T18:37:23.133Z,25.20
2023-01-19T18:39:50.219Z,23.23
2023-01-19T18:42:17.332Z,26.58
2023-01-19T18:44:44.282Z,26.40
2023-01-19T18:47:11.211Z,26.13
2023-01-19T18:49:39.559Z,26.25
2023-01-19T18:52:06.588Z,24.45
2023-01-19T18:54:33.594Z,24.17
2023-01-19T18:57:00.850Z,25.42
2023-01-19T18:59:27.825Z,26.67
2023-01-19T19:01:54.975Z,25.98
2023-01-19T19:04:21.896Z,26.95
2023-01-19T19:06:50.179Z,28.02
2023-01-19T19:09:17.022Z,28.75
2023-01-19T19:11:43.981Z,28.85
2023-01-19T19:14:10.934Z,26.92
2023-01-19T19:16:39.531Z,27.17
2023-01-19T19:19:06.506Z,28.35
2023-01-19T19:21:33.421Z,31.58
2023-01-19T19:24:01.705Z,30.88
2023-01-19T19:26:29.003Z,32.05
2023-01-19T19:28:56.471Z,32.13
2023-01-19T19:31:24.059Z,29.58
2023-01-19T19:33:51.549Z,32.70
2023-01-19T19:36:19.392Z,32.40
2023-01-19T19:38:46.514Z,32.03
2023-01-19T19:41:16.867Z,29.88
2023-01-19T19:43:43.804Z,29.77
2023-01-19T19:46:12.085Z,28.92
2023-01-19T19:48:39.651Z,27.38
2023-01-19T19:51:17.594Z,27.95
2023-01-19T19:53:46.091Z,27.35
2023-01-19T19:56:14.543Z,28.05
2023-01-19T19:58:42.649Z,28.38
2023-01-19T20:01:10.851Z,26.60
2023-01-19T20:03:37.986Z,27.88
2023-01-19T20:06:06.667Z,28.58
2023-01-19T20:08:33.936Z,28.77
2023-01-19T20:11:05.190Z,26.60
2023-01-19T20:13:34.275Z,27.52
2023-01-19T20:16:02.441Z,29.45
2023-01-19T20:18:29.656Z,28.50
2023-01-19T20:20:56.579Z,28.73
2023-01-19T20:23:23.543Z,27.45
2023-01-19T20:25:50.466Z,29.35
2023-01-19T20:28:17.410Z,27.15
2023-01-19T20:30:45.699Z,27.15
2023-01-19T20:33:12.637Z,27.20
2023-01-19T20:35:39.556Z,25.65
2023-01-19T20:38:06.479Z,26.02
2023-01-19T20:40:33.493Z,27.40
2023-01-19T20:43:00.457Z,26.40
2023-01-19T20:45:27.475Z,25.42
2023-01-19T20:47:55.829Z,27.17
2023-01-19T20:50:22.728Z,26.02
2023-01-19T20:52:49.763Z,27.80
2023-01-19T20:55:16.771Z,26.55
2023-01-19T20:57:43.679Z,26.30
2023-01-19T21:00:12.738Z,26.88
2023-01-19T21:02:39.675Z,33.95
2023-01-19T21:05:09.267Z,33.90
2023-01-19T21:07:36.231Z,32.17
2023-01-19T21:10:03.482Z,30.88
2023-01-19T21:12:30.499Z,29.45
2023-01-19T21:14:57.467Z,28.25
2023-01-19T21:17:24.401Z,28.83
2023-01-19T21:19:51.344Z,28.08
2023-01-19T21:22:19.634Z,28.27
2023-01-19T21:24:47.138Z,28.25
2023-01-19T21:27:14.108Z,26.02
2023-01-19T21:29:41.079Z,26.40
2023-01-19T21:32:08.052Z,26.77
2023-01-19T21:34:35.105Z,26.40
2023-01-19T21:37:02.058Z,26.45
2023-01-19T21:39:30.368Z,27.02
2023-01-19T21:41:57.284Z,27.40
2023-01-19T21:44:24.236Z,27.60
2023-01-19T21:46:51.185Z,28.52
2023-01-19T21:49:19.988Z,27.17
2023-01-19T21:51:48.091Z,26.50
2023-01-19T21:54:15.203Z,25.45
2023-01-19T21:56:43.597Z,25.23
2023-01-19T21:59:13.143Z,26.90
2023-01-19T22:01:40.680Z,24.40
2023-01-19T22:04:07.726Z,25.92
2023-01-19T22:06:34.911Z,25.83
2023-01-19T22:09:02.071Z,23.98
2023-01-19T22:11:29.079Z,24.27
2023-01-19T22:13:57.587Z,24.27
2023-01-19T22:16:24.609Z,23.90
2023-01-19T22:18:53.218Z,25.30
2023-01-19T22:21:21.950Z,24.65
2023-01-19T22:23:49.276Z,25.15
2023-01-19T22:26:16.830Z,25.85
2023-01-19T22:28:43.879Z,24.45
2023-01-19T22:31:14.018Z,23.40
2023-01-19T22:33:42.043Z,22.70
2023-01-19T22:36:14.872Z,22.77
2023-01-19T22:38:43.350Z,22.00
2023-01-19T22:41:14.797Z,22.55
2023-01-19T22:43:41.852Z,24.58
2023-01-19T22:46:09.045Z,24.55
2023-01-19T22:48:37.410Z,23.55
2023-01-19T22:51:04.645Z,23.50
2023-01-19T22:53:32.249Z,23.85
2023-01-19T22:55:59.374Z,23.65
2023-01-19T22:58:26.302Z,23.20
2023-01-19T23:00:53.278Z,23.13
2023-01-19T23:03:20.292Z,23.92
2023-01-19T23:05:48.667Z,21.90
2023-01-19T23:08:15.601Z,23.55
2023-01-19T23:10:42.713Z,23.63
2023-01-19T23:13:09.665Z,24.90
2023-01-19T23:15:36.578Z,24.88
2023-01-19T23:18:03.775Z,23.35
2023-01-19T23:20:30.717Z,25.63
2023-01-19T23:22:59.100Z,26.15
2023-01-19T23:25:26.049Z,25.58
2023-01-19T23:27:53.000Z,28.38
2023-01-19T23:30:20.333Z,25.77
2023-01-19T23:32:48.234Z,27.60
2023-01-19T23:35:15.951Z,30.52
2023-01-19T23:37:43.123Z,28.70
2023-01-19T23:40:12.506Z,27.00
2023-01-19T23:42:39.507Z,24.30
2023-01-19T23:45:07.910Z,27.52
2023-01-19T23:47:35.614Z,28.77
2023-01-19T23:50:03.364Z,25.40
2023-01-19T23:52:31.211Z,24.95
2023-01-19T23:54:58.266Z,22.98
2023-01-19T23:57:26.558Z,24.73
2023-01-19T23:59:53.551Z,25.10
